sensor_id;sensor_type;location;lat;lon;timestamp;temperature;humidity
23715;DHT22;12036;50.858;4.472;2024-03-08T00:01:14;5.70;99.90
23715;DHT22;12036;50.858;4.472;2024-03-08T00:03:42;5.70;99.90
23715;DHT22;12036;50.858;4.472;2024-03-08T00:06:07;5.60;99.90
23715;DHT22;12036;50.858;4.472;2024-03-08T00:08:33;5.60;99.90
23715;DHT22;12036;50.858;4.472;2024-03-08T00:10:59;5.60;99.90
23715;DHT22;12036;50.858;4.472;2024-03-08T00:13:24;5.60;99.90
23715;DHT22;12036;50.858;4.472;2024-03-08T00:15:50;5.60;99.90
23715;DHT22;12036;50.858;4.472;2024-03-08T00:18:16;5.70;99.90
23715;DHT22;12036;50.858;4.472;2024-03-08T00:20:42;5.60;99.90
23715;DHT22;12036;50.858;4.472;2024-03-08T00:23:09;5.50;99.90
23715;DHT22;12036;50.858;4.472;2024-03-08T00:25:36;5.50;99.90
23715;DHT22;12036;50.858;4.472;2024-03-08T00:28:02;5.50;99.90
23715;DHT22;12036;50.858;4.472;2024-03-08T00:30:30;5.50;99.90
23715;DHT22;12036;50.858;4.472;2024-03-08T00:32:56;5.50;99.90
23715;DHT22;12036;50.858;4.472;2024-03-08T00:35:22;5.60;99.90
23715;DHT22;12036;50.858;4.472;2024-03-08T00:37:48;5.60;99.90
23715;DHT22;12036;50.858;4.472;2024-03-08T00:40:14;5.60;99.90
23715;DHT22;12036;50.858;4.472;2024-03-08T00:42:40;5.60;99.90
23715;DHT22;12036;50.858;4.472;2024-03-08T00:45:07;5.50;99.90
23715;DHT22;12036;50.858;4.472;2024-03-08T00:47:33;5.40;99.90
23715;DHT22;12036;50.858;4.472;2024-03-08T00:49:58;5.30;99.90
23715;DHT22;12036;50.858;4.472;2024-03-08T00:52:24;5.40;99.90
23715;DHT22;12036;50.858;4.472;2024-03-08T00:54:50;5.40;99.90
23715;DHT22;12036;50.858;4.472;2024-03-08T00:57:15;5.40;99.90
23715;DHT22;12036;50.858;4.472;2024-03-08T00:59:41;5.40;99.90
23715;DHT22;12036;50.858;4.472;2024-03-08T01:02:07;5.40;99.90
23715;DHT22;12036;50.858;4.472;2024-03-08T01:04:34;5.40;99.90
23715;DHT22;12036;50.858;4.472;2024-03-08T01:07:00;5.30;99.90
23715;DHT22;12036;50.858;4.472;2024-03-08T01:09:26;5.30;99.90
23715;DHT22;12036;50.858;4.472;2024-03-08T01:11:53;5.20;99.90
23715;DHT22;12036;50.858;4.472;2024-03-08T01:14:20;5.20;99.90
23715;DHT22;12036;50.858;4.472;2024-03-08T01:16:48;5.20;99.90
23715;DHT22;12036;50.858;4.472;2024-03-08T01:19:14;5.20;99.90
23715;DHT22;12036;50.858;4.472;2024-03-08T01:21:41;5.20;99.90
23715;DHT22;12036;50.858;4.472;2024-03-08T01:24:06;5.10;99.90
23715;DHT22;12036;50.858;4.472;2024-03-08T01:26:32;5.00;99.90
23715;DHT22;12036;50.858;4.472;2024-03-08T01:29:00;5.10;99.90
23715;DHT22;12036;50.858;4.472;2024-03-08T01:31:31;5.10;99.90
23715;DHT22;12036;50.858;4.472;2024-03-08T01:33:58;5.10;99.90
23715;DHT22;12036;50.858;4.472;2024-03-08T01:36:24;5.10;99.90
23715;DHT22;12036;50.858;4.472;2024-03-08T01:38:50;5.00;99.90
23715;DHT22;12036;50.858;4.472;2024-03-08T01:41:16;4.90;99.90
23715;DHT22;12036;50.858;4.472;2024-03-08T01:43:43;4.90;99.90
23715;DHT22;12036;50.858;4.472;2024-03-08T01:46:09;4.90;99.90
23715;DHT22;12036;50.858;4.472;2024-03-08T01:48:36;4.80;99.90
23715;DHT22;12036;50.858;4.472;2024-03-08T01:51:03;4.90;99.90
23715;DHT22;12036;50.858;4.472;2024-03-08T01:53:29;5.00;99.90
23715;DHT22;12036;50.858;4.472;2024-03-08T01:55:59;5.10;99.90
23715;DHT22;12036;50.858;4.472;2024-03-08T01:58:28;5.00;99.90
23715;DHT22;12036;50.858;4.472;2024-03-08T02:00:56;5.00;99.90
23715;DHT22;12036;50.858;4.472;2024-03-08T02:03:22;4.90;99.90
23715;DHT22;12036;50.858;4.472;2024-03-08T02:05:48;4.90;99.90
23715;DHT22;12036;50.858;4.472;2024-03-08T02:08:15;5.00;99.90
23715;DHT22;12036;50.858;4.472;2024-03-08T02:10:43;5.00;99.90
23715;DHT22;12036;50.858;4.472;2024-03-08T02:13:09;4.90;99.90
23715;DHT22;12036;50.858;4.472;2024-03-08T02:18:20;4.90;99.90
23715;DHT22;12036;50.858;4.472;2024-03-08T02:20:57;4.80;99.90
23715;DHT22;12036;50.858;4.472;2024-03-08T02:23:24;4.80;99.90
23715;DHT22;12036;50.858;4.472;2024-03-08T02:25:53;4.90;99.90
23715;DHT22;12036;50.858;4.472;2024-03-08T02:28:19;4.80;99.90
23715;DHT22;12036;50.858;4.472;2024-03-08T02:30:46;4.80;99.90
23715;DHT22;12036;50.858;4.472;2024-03-08T02:33:14;4.70;99.90
23715;DHT22;12036;50.858;4.472;2024-03-08T02:35:47;4.70;99.90
23715;DHT22;12036;50.858;4.472;2024-03-08T02:38:13;4.70;99.90
23715;DHT22;12036;50.858;4.472;2024-03-08T02:40:42;4.70;99.90
23715;DHT22;12036;50.858;4.472;2024-03-08T02:43:09;4.70;99.90
23715;DHT22;12036;50.858;4.472;2024-03-08T02:45:34;4.60;99.90
23715;DHT22;12036;50.858;4.472;2024-03-08T02:48:00;4.70;99.90
23715;DHT22;12036;50.858;4.472;2024-03-08T02:50:26;4.70;99.90
23715;DHT22;12036;50.858;4.472;2024-03-08T02:52:51;4.60;99.90
23715;DHT22;12036;50.858;4.472;2024-03-08T02:55:17;4.60;99.90
23715;DHT22;12036;50.858;4.472;2024-03-08T02:57:43;4.60;99.90
23715;DHT22;12036;50.858;4.472;2024-03-08T03:00:10;4.50;99.90
23715;DHT22;12036;50.858;4.472;2024-03-08T03:02:36;4.50;99.90
23715;DHT22;12036;50.858;4.472;2024-03-08T03:05:03;4.50;99.90
23715;DHT22;12036;50.858;4.472;2024-03-08T03:07:32;4.60;99.90
23715;DHT22;12036;50.858;4.472;2024-03-08T03:09:59;4.50;99.90
23715;DHT22;12036;50.858;4.472;2024-03-08T03:12:29;4.50;99.90
23715;DHT22;12036;50.858;4.472;2024-03-08T03:14:55;4.50;99.90
23715;DHT22;12036;50.858;4.472;2024-03-08T03:17:25;4.40;99.90
23715;DHT22;12036;50.858;4.472;2024-03-08T03:19:52;4.40;99.90
23715;DHT22;12036;50.858;4.472;2024-03-08T03:22:18;4.30;99.90
23715;DHT22;12036;50.858;4.472;2024-03-08T03:24:46;4.40;99.90
23715;DHT22;12036;50.858;4.472;2024-03-08T03:27:15;4.40;99.90
23715;DHT22;12036;50.858;4.472;2024-03-08T03:29:42;4.30;99.90
23715;DHT22;12036;50.858;4.472;2024-03-08T03:32:14;4.30;99.90
23715;DHT22;12036;50.858;4.472;2024-03-08T03:34:40;4.30;99.90
23715;DHT22;12036;50.858;4.472;2024-03-08T03:37:07;4.30;99.90
23715;DHT22;12036;50.858;4.472;2024-03-08T03:39:34;4.30;99.90
23715;DHT22;12036;50.858;4.472;2024-03-08T03:42:03;4.20;99.90
23715;DHT22;12036;50.858;4.472;2024-03-08T03:44:29;4.20;99.90
23715;DHT22;12036;50.858;4.472;2024-03-08T03:46:54;4.20;99.90
23715;DHT22;12036;50.858;4.472;2024-03-08T03:49:20;4.20;99.90
23715;DHT22;12036;50.858;4.472;2024-03-08T03:51:46;4.20;99.90
23715;DHT22;12036;50.858;4.472;2024-03-08T03:54:12;4.20;99.90
23715;DHT22;12036;50.858;4.472;2024-03-08T03:56:38;4.10;99.90
23715;DHT22;12036;50.858;4.472;2024-03-08T03:59:05;4.20;99.90
23715;DHT22;12036;50.858;4.472;2024-03-08T04:01:32;4.10;99.90
23715;DHT22;12036;50.858;4.472;2024-03-08T04:03:58;4.20;99.90
23715;DHT22;12036;50.858;4.472;2024-03-08T04:06:24;4.20;99.90
23715;DHT22;12036;50.858;4.472;2024-03-08T04:08:50;4.30;99.90
23715;DHT22;12036;50.858;4.472;2024-03-08T04:11:16;4.20;99.90
23715;DHT22;12036;50.858;4.472;2024-03-08T04:13:42;4.10;99.90
23715;DHT22;12036;50.858;4.472;2024-03-08T04:16:08;4.10;99.90
23715;DHT22;12036;50.858;4.472;2024-03-08T04:18:34;4.10;99.90
23715;DHT22;12036;50.858;4.472;2024-03-08T04:21:06;4.10;99.90
23715;DHT22;12036;50.858;4.472;2024-03-08T04:23:35;4.20;99.90
23715;DHT22;12036;50.858;4.472;2024-03-08T04:26:02;4.20;99.90
23715;DHT22;12036;50.858;4.472;2024-03-08T04:28:29;4.20;99.90
23715;DHT22;12036;50.858;4.472;2024-03-08T04:30:56;4.10;99.90
23715;DHT22;12036;50.858;4.472;2024-03-08T04:33:22;4.00;99.90
23715;DHT22;12036;50.858;4.472;2024-03-08T04:35:49;4.00;99.90
23715;DHT22;12036;50.858;4.472;2024-03-08T04:38:14;4.00;99.90
23715;DHT22;12036;50.858;4.472;2024-03-08T04:40:41;4.10;99.90
23715;DHT22;12036;50.858;4.472;2024-03-08T04:43:07;4.10;99.90
23715;DHT22;12036;50.858;4.472;2024-03-08T04:45:34;4.20;99.90
23715;DHT22;12036;50.858;4.472;2024-03-08T04:47:59;4.20;99.90
23715;DHT22;12036;50.858;4.472;2024-03-08T04:50:25;4.20;99.90
23715;DHT22;12036;50.858;4.472;2024-03-08T04:52:57;4.20;99.90
23715;DHT22;12036;50.858;4.472;2024-03-08T04:55:22;4.10;99.90
23715;DHT22;12036;50.858;4.472;2024-03-08T04:57:48;4.00;99.90
23715;DHT22;12036;50.858;4.472;2024-03-08T05:00:15;4.00;99.90
23715;DHT22;12036;50.858;4.472;2024-03-08T05:02:41;4.10;99.90
23715;DHT22;12036;50.858;4.472;2024-03-08T05:05:07;4.00;99.90
23715;DHT22;12036;50.858;4.472;2024-03-08T05:07:34;3.90;99.90
23715;DHT22;12036;50.858;4.472;2024-03-08T05:10:00;3.90;99.90
23715;DHT22;12036;50.858;4.472;2024-03-08T05:12:27;4.00;99.90
23715;DHT22;12036;50.858;4.472;2024-03-08T05:14:53;3.90;99.90
23715;DHT22;12036;50.858;4.472;2024-03-08T05:17:19;3.90;99.90
23715;DHT22;12036;50.858;4.472;2024-03-08T05:19:45;3.90;99.90
23715;DHT22;12036;50.858;4.472;2024-03-08T05:22:10;3.90;99.90
23715;DHT22;12036;50.858;4.472;2024-03-08T05:24:36;3.90;99.90
23715;DHT22;12036;50.858;4.472;2024-03-08T05:27:05;3.90;99.90
23715;DHT22;12036;50.858;4.472;2024-03-08T05:29:31;3.90;99.90
23715;DHT22;12036;50.858;4.472;2024-03-08T05:31:57;3.90;99.90
23715;DHT22;12036;50.858;4.472;2024-03-08T05:34:23;3.80;99.90
23715;DHT22;12036;50.858;4.472;2024-03-08T05:36:51;3.80;99.90
23715;DHT22;12036;50.858;4.472;2024-03-08T05:39:19;3.80;99.90
23715;DHT22;12036;50.858;4.472;2024-03-08T05:41:48;3.70;99.90
23715;DHT22;12036;50.858;4.472;2024-03-08T05:44:13;3.80;99.90
23715;DHT22;12036;50.858;4.472;2024-03-08T05:46:39;3.80;99.90
23715;DHT22;12036;50.858;4.472;2024-03-08T05:49:09;3.90;99.90
23715;DHT22;12036;50.858;4.472;2024-03-08T05:51:36;3.90;99.90
23715;DHT22;12036;50.858;4.472;2024-03-08T05:54:07;3.90;99.90
23715;DHT22;12036;50.858;4.472;2024-03-08T05:56:35;3.80;99.90
23715;DHT22;12036;50.858;4.472;2024-03-08T05:59:01;3.90;99.90
23715;DHT22;12036;50.858;4.472;2024-03-08T06:01:28;3.90;99.90
23715;DHT22;12036;50.858;4.472;2024-03-08T06:03:54;4.00;99.90
23715;DHT22;12036;50.858;4.472;2024-03-08T06:06:23;3.90;99.90
23715;DHT22;12036;50.858;4.472;2024-03-08T06:08:49;3.90;99.90
23715;DHT22;12036;50.858;4.472;2024-03-08T06:11:16;3.90;99.90
23715;DHT22;12036;50.858;4.472;2024-03-08T06:13:46;3.80;99.90
23715;DHT22;12036;50.858;4.472;2024-03-08T06:16:12;3.80;99.90
23715;DHT22;12036;50.858;4.472;2024-03-08T06:18:37;3.90;99.90
23715;DHT22;12036;50.858;4.472;2024-03-08T06:21:04;3.90;99.90
23715;DHT22;12036;50.858;4.472;2024-03-08T06:23:35;3.90;99.90
23715;DHT22;12036;50.858;4.472;2024-03-08T06:26:07;3.80;99.90
23715;DHT22;12036;50.858;4.472;2024-03-08T06:28:33;3.80;99.90
23715;DHT22;12036;50.858;4.472;2024-03-08T06:31:00;3.80;99.90
23715;DHT22;12036;50.858;4.472;2024-03-08T06:33:26;3.80;99.90
23715;DHT22;12036;50.858;4.472;2024-03-08T06:35:55;3.70;99.90
23715;DHT22;12036;50.858;4.472;2024-03-08T06:38:23;3.90;99.90
23715;DHT22;12036;50.858;4.472;2024-03-08T06:40:49;3.80;99.90
23715;DHT22;12036;50.858;4.472;2024-03-08T06:43:17;3.90;99.90
23715;DHT22;12036;50.858;4.472;2024-03-08T06:45:44;3.90;99.90
23715;DHT22;12036;50.858;4.472;2024-03-08T06:48:20;4.00;99.90
23715;DHT22;12036;50.858;4.472;2024-03-08T06:50:46;3.90;99.90
23715;DHT22;12036;50.858;4.472;2024-03-08T06:53:13;3.90;99.90
23715;DHT22;12036;50.858;4.472;2024-03-08T06:55:39;4.00;99.90
23715;DHT22;12036;50.858;4.472;2024-03-08T06:58:05;4.10;99.90
23715;DHT22;12036;50.858;4.472;2024-03-08T07:00:32;4.00;99.90
23715;DHT22;12036;50.858;4.472;2024-03-08T07:02:58;4.20;99.90
23715;DHT22;12036;50.858;4.472;2024-03-08T07:05:29;4.40;99.90
23715;DHT22;12036;50.858;4.472;2024-03-08T07:07:56;4.40;99.90
23715;DHT22;12036;50.858;4.472;2024-03-08T07:10:22;4.50;99.90
23715;DHT22;12036;50.858;4.472;2024-03-08T07:12:50;4.50;99.90
23715;DHT22;12036;50.858;4.472;2024-03-08T07:15:16;4.60;99.90
23715;DHT22;12036;50.858;4.472;2024-03-08T07:17:45;4.60;99.90
23715;DHT22;12036;50.858;4.472;2024-03-08T07:20:11;4.60;99.90
23715;DHT22;12036;50.858;4.472;2024-03-08T07:22:39;4.70;99.90
23715;DHT22;12036;50.858;4.472;2024-03-08T07:25:09;4.70;99.90
23715;DHT22;12036;50.858;4.472;2024-03-08T07:27:54;4.90;99.90
23715;DHT22;12036;50.858;4.472;2024-03-08T07:30:21;4.90;99.90
23715;DHT22;12036;50.858;4.472;2024-03-08T07:33:25;4.90;99.90
23715;DHT22;12036;50.858;4.472;2024-03-08T07:35:51;4.90;99.90
23715;DHT22;12036;50.858;4.472;2024-03-08T07:38:17;4.90;99.90
23715;DHT22;12036;50.858;4.472;2024-03-08T07:40:46;5.00;99.90
23715;DHT22;12036;50.858;4.472;2024-03-08T07:43:13;5.20;99.90
23715;DHT22;12036;50.858;4.472;2024-03-08T07:45:39;5.20;99.90
23715;DHT22;12036;50.858;4.472;2024-03-08T07:48:05;5.20;99.90
23715;DHT22;12036;50.858;4.472;2024-03-08T07:50:38;5.30;99.90
23715;DHT22;12036;50.858;4.472;2024-03-08T07:53:05;5.40;99.90
23715;DHT22;12036;50.858;4.472;2024-03-08T07:55:34;5.50;99.90
23715;DHT22;12036;50.858;4.472;2024-03-08T07:58:01;5.40;99.90
23715;DHT22;12036;50.858;4.472;2024-03-08T08:00:27;5.40;99.90
23715;DHT22;12036;50.858;4.472;2024-03-08T08:02:53;5.50;99.90
23715;DHT22;12036;50.858;4.472;2024-03-08T08:05:19;5.60;99.90
23715;DHT22;12036;50.858;4.472;2024-03-08T08:07:45;5.90;99.90
23715;DHT22;12036;50.858;4.472;2024-03-08T08:10:12;6.10;99.90
23715;DHT22;12036;50.858;4.472;2024-03-08T08:12:50;6.40;99.90
23715;DHT22;12036;50.858;4.472;2024-03-08T08:15:17;6.70;99.90
23715;DHT22;12036;50.858;4.472;2024-03-08T08:17:44;6.80;99.90
23715;DHT22;12036;50.858;4.472;2024-03-08T08:20:11;6.90;99.90
23715;DHT22;12036;50.858;4.472;2024-03-08T08:22:38;7.00;99.90
23715;DHT22;12036;50.858;4.472;2024-03-08T08:25:05;6.90;99.90
23715;DHT22;12036;50.858;4.472;2024-03-08T08:27:31;6.80;99.90
23715;DHT22;12036;50.858;4.472;2024-03-08T08:29:56;6.90;99.90
23715;DHT22;12036;50.858;4.472;2024-03-08T08:32:22;6.90;99.90
23715;DHT22;12036;50.858;4.472;2024-03-08T08:34:48;6.90;99.90
23715;DHT22;12036;50.858;4.472;2024-03-08T08:37:14;7.00;99.90
23715;DHT22;12036;50.858;4.472;2024-03-08T08:39:41;6.90;99.90
23715;DHT22;12036;50.858;4.472;2024-03-08T08:42:07;7.00;99.90
23715;DHT22;12036;50.858;4.472;2024-03-08T08:44:35;7.10;99.90
23715;DHT22;12036;50.858;4.472;2024-03-08T08:47:01;7.20;99.90
23715;DHT22;12036;50.858;4.472;2024-03-08T08:49:28;7.20;99.90
23715;DHT22;12036;50.858;4.472;2024-03-08T08:51:56;7.10;99.90
23715;DHT22;12036;50.858;4.472;2024-03-08T08:54:23;7.20;99.90
23715;DHT22;12036;50.858;4.472;2024-03-08T08:56:50;7.20;99.90
23715;DHT22;12036;50.858;4.472;2024-03-08T08:59:16;7.30;99.90
23715;DHT22;12036;50.858;4.472;2024-03-08T09:01:45;7.40;99.90
23715;DHT22;12036;50.858;4.472;2024-03-08T09:04:14;7.60;99.90
23715;DHT22;12036;50.858;4.472;2024-03-08T09:06:40;7.70;99.90
23715;DHT22;12036;50.858;4.472;2024-03-08T09:09:07;7.70;99.90
23715;DHT22;12036;50.858;4.472;2024-03-08T09:11:37;7.80;99.90
23715;DHT22;12036;50.858;4.472;2024-03-08T09:14:07;7.80;99.90
23715;DHT22;12036;50.858;4.472;2024-03-08T09:16:33;8.00;99.90
23715;DHT22;12036;50.858;4.472;2024-03-08T09:18:58;8.10;99.90
23715;DHT22;12036;50.858;4.472;2024-03-08T09:21:25;8.20;99.90
23715;DHT22;12036;50.858;4.472;2024-03-08T09:23:52;8.20;99.90
23715;DHT22;12036;50.858;4.472;2024-03-08T09:26:19;8.20;99.90
23715;DHT22;12036;50.858;4.472;2024-03-08T09:28:44;8.10;99.90
23715;DHT22;12036;50.858;4.472;2024-03-08T09:31:11;8.10;99.90
23715;DHT22;12036;50.858;4.472;2024-03-08T09:33:37;8.20;99.90
23715;DHT22;12036;50.858;4.472;2024-03-08T09:36:05;8.40;99.90
23715;DHT22;12036;50.858;4.472;2024-03-08T09:38:33;8.50;99.80
23715;DHT22;12036;50.858;4.472;2024-03-08T09:41:00;8.70;99.30
23715;DHT22;12036;50.858;4.472;2024-03-08T09:43:29;8.70;99.40
23715;DHT22;12036;50.858;4.472;2024-03-08T09:45:57;8.70;99.70
23715;DHT22;12036;50.858;4.472;2024-03-08T09:48:23;8.90;99.10
23715;DHT22;12036;50.858;4.472;2024-03-08T09:50:49;9.10;98.90
23715;DHT22;12036;50.858;4.472;2024-03-08T09:53:15;9.10;97.90
23715;DHT22;12036;50.858;4.472;2024-03-08T09:55:42;9.20;98.30
23715;DHT22;12036;50.858;4.472;2024-03-08T09:58:11;9.30;98.00
23715;DHT22;12036;50.858;4.472;2024-03-08T10:00:47;9.70;97.90
23715;DHT22;12036;50.858;4.472;2024-03-08T10:03:13;10.20;96.40
23715;DHT22;12036;50.858;4.472;2024-03-08T10:05:41;10.30;95.10
23715;DHT22;12036;50.858;4.472;2024-03-08T10:08:06;10.20;95.00
23715;DHT22;12036;50.858;4.472;2024-03-08T10:10:36;10.20;95.40
23715;DHT22;12036;50.858;4.472;2024-03-08T10:13:08;10.20;95.10
23715;DHT22;12036;50.858;4.472;2024-03-08T10:15:35;10.30;94.90
23715;DHT22;12036;50.858;4.472;2024-03-08T10:18:01;10.30;94.60
23715;DHT22;12036;50.858;4.472;2024-03-08T10:20:31;10.10;94.40
23715;DHT22;12036;50.858;4.472;2024-03-08T10:23:00;9.90;95.10
23715;DHT22;12036;50.858;4.472;2024-03-08T10:25:26;9.80;95.70
23715;DHT22;12036;50.858;4.472;2024-03-08T10:27:51;9.70;96.00
23715;DHT22;12036;50.858;4.472;2024-03-08T10:30:17;9.70;96.10
23715;DHT22;12036;50.858;4.472;2024-03-08T10:32:45;9.70;96.10
23715;DHT22;12036;50.858;4.472;2024-03-08T10:35:12;9.80;95.80
23715;DHT22;12036;50.858;4.472;2024-03-08T10:37:58;9.80;96.30
23715;DHT22;12036;50.858;4.472;2024-03-08T10:40:28;9.90;95.90
23715;DHT22;12036;50.858;4.472;2024-03-08T10:42:56;10.00;95.30
23715;DHT22;12036;50.858;4.472;2024-03-08T10:47:57;9.90;95.40
23715;DHT22;12036;50.858;4.472;2024-03-08T10:50:30;9.90;95.90
23715;DHT22;12036;50.858;4.472;2024-03-08T10:53:00;10.00;95.90
23715;DHT22;12036;50.858;4.472;2024-03-08T10:55:28;10.00;95.70
23715;DHT22;12036;50.858;4.472;2024-03-08T10:57:54;10.20;95.10
23715;DHT22;12036;50.858;4.472;2024-03-08T11:00:20;10.10;95.20
23715;DHT22;12036;50.858;4.472;2024-03-08T11:02:52;10.20;94.80
23715;DHT22;12036;50.858;4.472;2024-03-08T11:05:39;10.20;95.00
23715;DHT22;12036;50.858;4.472;2024-03-08T11:10:50;10.40;94.40
23715;DHT22;12036;50.858;4.472;2024-03-08T11:13:39;10.50;94.80
23715;DHT22;12036;50.858;4.472;2024-03-08T11:16:12;10.80;94.30
23715;DHT22;12036;50.858;4.472;2024-03-08T11:19:01;11.10;94.20
23715;DHT22;12036;50.858;4.472;2024-03-08T11:21:31;11.30;93.40
23715;DHT22;12036;50.858;4.472;2024-03-08T11:24:06;11.40;93.20
23715;DHT22;12036;50.858;4.472;2024-03-08T11:26:33;11.60;93.00
23715;DHT22;12036;50.858;4.472;2024-03-08T11:34:38;11.50;92.60
23715;DHT22;12036;50.858;4.472;2024-03-08T11:37:05;11.80;92.40
23715;DHT22;12036;50.858;4.472;2024-03-08T11:39:35;12.10;92.40
23715;DHT22;12036;50.858;4.472;2024-03-08T11:42:02;12.60;91.70
23715;DHT22;12036;50.858;4.472;2024-03-08T11:44:28;13.00;91.30
23715;DHT22;12036;50.858;4.472;2024-03-08T11:46:54;13.20;91.10
23715;DHT22;12036;50.858;4.472;2024-03-08T11:49:20;13.70;89.50
23715;DHT22;12036;50.858;4.472;2024-03-08T11:51:46;13.80;88.30
23715;DHT22;12036;50.858;4.472;2024-03-08T11:54:13;13.70;87.80
23715;DHT22;12036;50.858;4.472;2024-03-08T11:56:38;13.30;89.00
23715;DHT22;12036;50.858;4.472;2024-03-08T11:59:05;13.20;88.30
23715;DHT22;12036;50.858;4.472;2024-03-08T12:01:36;12.90;89.10
23715;DHT22;12036;50.858;4.472;2024-03-08T12:04:01;12.80;88.90
23715;DHT22;12036;50.858;4.472;2024-03-08T12:06:38;12.60;90.40
23715;DHT22;12036;50.858;4.472;2024-03-08T12:09:13;12.40;90.00
23715;DHT22;12036;50.858;4.472;2024-03-08T12:11:40;12.40;90.50
23715;DHT22;12036;50.858;4.472;2024-03-08T12:14:06;12.30;90.50
23715;DHT22;12036;50.858;4.472;2024-03-08T12:16:32;12.20;90.90
23715;DHT22;12036;50.858;4.472;2024-03-08T12:18:59;12.30;91.20
23715;DHT22;12036;50.858;4.472;2024-03-08T12:21:26;12.30;91.10
23715;DHT22;12036;50.858;4.472;2024-03-08T12:24:04;12.40;91.10
23715;DHT22;12036;50.858;4.472;2024-03-08T12:26:31;12.60;90.80
23715;DHT22;12036;50.858;4.472;2024-03-08T12:31:41;12.70;90.80
23715;DHT22;12036;50.858;4.472;2024-03-08T12:34:08;12.70;90.70
23715;DHT22;12036;50.858;4.472;2024-03-08T12:36:35;12.70;90.50
23715;DHT22;12036;50.858;4.472;2024-03-08T12:39:02;12.90;89.70
23715;DHT22;12036;50.858;4.472;2024-03-08T12:41:29;12.90;90.00
23715;DHT22;12036;50.858;4.472;2024-03-08T12:43:55;13.00;89.60
23715;DHT22;12036;50.858;4.472;2024-03-08T12:46:21;13.10;89.40
23715;DHT22;12036;50.858;4.472;2024-03-08T12:48:52;13.00;88.90
23715;DHT22;12036;50.858;4.472;2024-03-08T12:51:20;13.10;89.10
23715;DHT22;12036;50.858;4.472;2024-03-08T12:53:46;13.10;89.20
23715;DHT22;12036;50.858;4.472;2024-03-08T12:56:13;13.10;89.30
23715;DHT22;12036;50.858;4.472;2024-03-08T12:58:40;13.10;89.50
23715;DHT22;12036;50.858;4.472;2024-03-08T13:01:06;13.10;89.40
23715;DHT22;12036;50.858;4.472;2024-03-08T13:03:35;13.10;89.70
23715;DHT22;12036;50.858;4.472;2024-03-08T13:06:05;13.10;89.60
23715;DHT22;12036;50.858;4.472;2024-03-08T13:08:37;13.20;90.10
23715;DHT22;12036;50.858;4.472;2024-03-08T13:11:06;13.30;89.20
23715;DHT22;12036;50.858;4.472;2024-03-08T13:13:33;13.40;88.70
23715;DHT22;12036;50.858;4.472;2024-03-08T13:16:01;13.30;88.80
23715;DHT22;12036;50.858;4.472;2024-03-08T13:18:27;13.30;89.50
23715;DHT22;12036;50.858;4.472;2024-03-08T13:20:54;13.30;89.90
23715;DHT22;12036;50.858;4.472;2024-03-08T13:23:20;13.40;90.30
23715;DHT22;12036;50.858;4.472;2024-03-08T13:25:46;13.50;89.30
23715;DHT22;12036;50.858;4.472;2024-03-08T13:28:15;13.50;90.10
23715;DHT22;12036;50.858;4.472;2024-03-08T13:30:41;13.70;88.30
23715;DHT22;12036;50.858;4.472;2024-03-08T13:33:07;13.70;89.50
23715;DHT22;12036;50.858;4.472;2024-03-08T13:35:33;13.70;89.20
23715;DHT22;12036;50.858;4.472;2024-03-08T13:37:59;13.60;87.60
23715;DHT22;12036;50.858;4.472;2024-03-08T13:40:28;13.70;88.50
23715;DHT22;12036;50.858;4.472;2024-03-08T13:42:54;13.70;88.20
23715;DHT22;12036;50.858;4.472;2024-03-08T13:45:20;13.80;87.20
23715;DHT22;12036;50.858;4.472;2024-03-08T13:47:49;14.00;86.70
23715;DHT22;12036;50.858;4.472;2024-03-08T13:50:17;13.90;86.20
23715;DHT22;12036;50.858;4.472;2024-03-08T13:52:50;13.80;86.60
23715;DHT22;12036;50.858;4.472;2024-03-08T13:55:22;13.80;87.50
23715;DHT22;12036;50.858;4.472;2024-03-08T13:57:48;13.70;87.70
23715;DHT22;12036;50.858;4.472;2024-03-08T14:00:14;13.80;87.90
23715;DHT22;12036;50.858;4.472;2024-03-08T14:02:40;13.80;87.40
23715;DHT22;12036;50.858;4.472;2024-03-08T14:05:09;13.80;87.50
23715;DHT22;12036;50.858;4.472;2024-03-08T14:07:37;13.90;86.90
23715;DHT22;12036;50.858;4.472;2024-03-08T14:10:03;14.00;87.60
23715;DHT22;12036;50.858;4.472;2024-03-08T14:12:29;14.00;86.40
23715;DHT22;12036;50.858;4.472;2024-03-08T14:14:55;14.10;86.30
23715;DHT22;12036;50.858;4.472;2024-03-08T14:17:25;14.10;85.70
23715;DHT22;12036;50.858;4.472;2024-03-08T14:19:52;14.10;86.20
23715;DHT22;12036;50.858;4.472;2024-03-08T14:22:18;14.20;86.60
23715;DHT22;12036;50.858;4.472;2024-03-08T14:24:45;14.20;86.90
23715;DHT22;12036;50.858;4.472;2024-03-08T14:27:11;14.20;86.80
23715;DHT22;12036;50.858;4.472;2024-03-08T14:29:38;14.30;86.80
23715;DHT22;12036;50.858;4.472;2024-03-08T14:32:07;14.30;86.30
23715;DHT22;12036;50.858;4.472;2024-03-08T14:34:34;14.30;86.50
23715;DHT22;12036;50.858;4.472;2024-03-08T14:37:00;14.40;85.60
23715;DHT22;12036;50.858;4.472;2024-03-08T14:39:26;14.40;85.90
23715;DHT22;12036;50.858;4.472;2024-03-08T14:41:55;14.40;85.80
23715;DHT22;12036;50.858;4.472;2024-03-08T14:44:21;14.50;85.40
23715;DHT22;12036;50.858;4.472;2024-03-08T14:46:54;14.30;85.10
23715;DHT22;12036;50.858;4.472;2024-03-08T14:49:22;14.30;85.80
23715;DHT22;12036;50.858;4.472;2024-03-08T14:51:48;14.30;85.50
23715;DHT22;12036;50.858;4.472;2024-03-08T14:54:14;14.20;85.70
23715;DHT22;12036;50.858;4.472;2024-03-08T14:56:39;14.30;85.10
23715;DHT22;12036;50.858;4.472;2024-03-08T14:59:08;14.30;84.30
23715;DHT22;12036;50.858;4.472;2024-03-08T15:01:35;14.20;84.40
23715;DHT22;12036;50.858;4.472;2024-03-08T15:04:02;14.20;85.50
23715;DHT22;12036;50.858;4.472;2024-03-08T15:06:43;14.10;86.80
23715;DHT22;12036;50.858;4.472;2024-03-08T15:09:08;14.20;85.80
23715;DHT22;12036;50.858;4.472;2024-03-08T15:11:46;14.10;86.10
23715;DHT22;12036;50.858;4.472;2024-03-08T15:14:14;14.30;85.50
23715;DHT22;12036;50.858;4.472;2024-03-08T15:16:44;14.30;85.30
23715;DHT22;12036;50.858;4.472;2024-03-08T15:19:10;14.20;85.30
23715;DHT22;12036;50.858;4.472;2024-03-08T15:21:37;14.20;84.80
23715;DHT22;12036;50.858;4.472;2024-03-08T15:24:04;14.20;85.00
23715;DHT22;12036;50.858;4.472;2024-03-08T15:26:30;14.00;86.00
23715;DHT22;12036;50.858;4.472;2024-03-08T15:28:57;14.00;85.90
23715;DHT22;12036;50.858;4.472;2024-03-08T15:31:23;14.10;85.80
23715;DHT22;12036;50.858;4.472;2024-03-08T15:33:53;14.20;86.10
23715;DHT22;12036;50.858;4.472;2024-03-08T15:36:29;14.10;86.20
23715;DHT22;12036;50.858;4.472;2024-03-08T15:38:57;14.10;86.60
23715;DHT22;12036;50.858;4.472;2024-03-08T15:41:22;14.10;86.10
23715;DHT22;12036;50.858;4.472;2024-03-08T15:43:48;14.00;86.30
23715;DHT22;12036;50.858;4.472;2024-03-08T15:46:15;13.90;86.70
23715;DHT22;12036;50.858;4.472;2024-03-08T15:48:41;13.80;87.30
23715;DHT22;12036;50.858;4.472;2024-03-08T15:51:08;14.00;86.30
23715;DHT22;12036;50.858;4.472;2024-03-08T15:53:36;14.00;85.90
23715;DHT22;12036;50.858;4.472;2024-03-08T15:56:03;14.00;86.10
23715;DHT22;12036;50.858;4.472;2024-03-08T15:58:32;14.00;86.50